Wellington, FL

6:34 AM EDT on May 24, 2015 (GMT -0400)
Pinewood West | | Change Station
CLOSE
Current Station
Personal Weather Station
Location: Wellington, FL
Elevation: 43 ft
Nearby Weather Stations

Elev 43 ft 26.68 °N, 80.25 °W | Updated 7 seconds ago

Clear
Clear
72.5 °F
Feels Like 76 °F
N
0.0
Wind Variable Wind from ENE
Gusts 0.0 mph

Today
High -- | Low -- °F
--% Chance of Precip.
Yesterday
High -- | Low -- °F
Precip. -- in
6:29 AM 8:06 PM
Waxing Crescent, 38% visible
Pressure 30.15 in
Visibility 10.0 miles
Clouds Few 2600 ft
Few 20000 ft
Heat Index 76 °F
Dew Point 40 °F
Humidity 31%
Rainfall 0.00 in
Snow Depth Not available.
UV 0.0 out of 12
Pollen 4.30 out of 12
Air Quality Not available.
Flu Activity Sporadic
METAR KPBI 240953Z 11010KT 10SM FEW026 FEW200 26/21 A3015 RMK AO2 SLP210 T02610206 $

More Conditions Fewer Conditions

Pressure 30.15 in
Visibility 10.0 miles
Clouds Few 2600 ft
Few 20000 ft
Heat Index 76 °F
Dew Point 40 °F
Humidity 31%
Rainfall 0.00 in
Snow Depth Not available.
UV 0.0 out of 12
Pollen 4.30 out of 12
Air Quality Not available.
Flu Activity Sporadic
METAR KPBI 240953Z 11010KT 10SM FEW026 FEW200 26/21 A3015 RMK AO2 SLP210 T02610206 $

More Conditions Fewer Conditions

10-Day Weather Forecast

Almanac

Astronomy

May. 24, 2015 Rise Set
Actual Time
Civil Twilight
Nautical Twilight
Astronomical Twilight
Moon
Length of Visible Light
Length of Day
Tomorrow will be .
, % of the Moon is Illuminated

Today's Extremes

State Highs State Lows

Community

WunderPhotos

Upload Photos

1,823,710 photos uploaded!

WunderBlogs® & News

Nearby

Air Quality

  Air Quality AQ Index Pollutant
Not available.

Snow Depth

Station Depth Elevation

Earthquake Activity

City Distance Mag. Time & Date
Minimum magnitude displayed is 2.5.

Coastal Water Temperatures

Place Temperature

Stations

Nearby Weather Stations

Station Location Temp. Windchill Dew Point Humidity Wind Precip. Elev Updated Type